Time;durP1;ratioP1;P1;durP2;ratioP2;P2;SDS_P1;SDS_P2;PMS_P1;PMS_P2;Temp;Humidity;BMP_temperature;BMP_pressure;BME280_temperature;BME280_humidity;BME280_pressure;Samples;Min_cycle;Max_cycle;Signal;HPM_P1;HPM_P2
2021/07/11 00:02:13;;;;;;;33.85;20.98;;;;;;;16.84;77.29;101721.41;5072326;28;20079;-66
2021/07/11 00:04:39;;;;;;;33.65;20.33;;;;;;;16.80;77.62;101712.72;5074430;28;20036;-66
2021/07/11 00:07:04;;;;;;;34.53;20.90;;;;;;;16.81;77.23;101716.25;5075654;28;20490;-66
2021/07/11 00:09:29;;;;;;;37.33;21.08;;;;;;;16.82;77.08;101710.78;5075519;28;20449;-65
2021/07/11 00:11:55;;;;;;;39.53;22.17;;;;;;;16.81;77.85;101711.75;5071887;28;20028;-66
2021/07/11 00:14:20;;;;;;;34.08;21.63;;;;;;;16.85;77.76;101717.78;5075261;28;20030;-65
2021/07/11 00:16:46;;;;;;;36.25;22.00;;;;;;;16.83;77.51;101715.19;5074692;28;20023;-66
2021/07/11 00:19:11;;;;;;;35.10;20.33;;;;;;;16.84;77.18;101713.38;5074391;28;20037;-66
2021/07/11 00:21:36;;;;;;;37.65;21.83;;;;;;;16.83;77.87;101712.53;5073840;28;20035;-66
2021/07/11 00:24:02;;;;;;;34.78;19.75;;;;;;;16.85;78.35;101707.09;5056295;28;20037;-66
2021/07/11 00:26:28;;;;;;;39.45;23.25;;;;;;;16.84;77.79;101716.94;5055123;28;20021;-67
2021/07/11 00:28:53;;;;;;;39.33;22.95;;;;;;;16.81;77.64;101717.09;5054758;28;20029;-66
2021/07/11 00:31:18;;;;;;;38.22;23.02;;;;;;;16.81;78.24;101716.25;5054600;28;20032;-65
2021/07/11 00:33:44;;;;;;;34.63;22.42;;;;;;;16.87;78.40;101718.56;5057106;28;20745;-66
2021/07/11 00:36:09;;;;;;;37.60;22.42;;;;;;;16.93;78.57;101723.59;5073893;28;20491;-66
2021/07/11 00:38:34;;;;;;;37.97;23.92;;;;;;;16.96;78.29;101710.03;5074851;28;20496;-66
2021/07/11 00:41:00;;;;;;;40.05;23.55;;;;;;;17.04;77.88;101721.13;5075038;28;20027;-66
2021/07/11 00:43:26;;;;;;;38.65;23.58;;;;;;;17.08;78.43;101726.34;5069401;28;20047;-66
2021/07/11 00:45:51;;;;;;;44.65;24.80;;;;;;;17.10;78.28;101730.66;5037127;28;20491;-67
2021/07/11 00:48:18;;;;;;;43.97;24.58;;;;;;;17.10;78.05;101727.13;5054220;28;20393;-66
2021/07/11 00:50:44;;;;;;;40.72;23.95;;;;;;;17.09;78.03;101714.69;5061904;28;20024;-67
2021/07/11 00:53:10;;;;;;;35.72;21.65;;;;;;;17.10;77.73;101725.28;5074483;28;20028;-65
2021/07/11 00:55:36;;;;;;;37.65;22.48;;;;;;;17.15;77.25;101728.56;5057306;28;20021;-67
2021/07/11 00:58:03;;;;;;;37.20;22.27;;;;;;;17.20;77.13;101726.47;5054319;28;20024;-66
2021/07/11 01:00:28;;;;;;;38.75;22.77;;;;;;;17.16;78.10;101726.72;5054319;28;20031;-67
2021/07/11 01:03:04;;;;;;;47.28;27.05;;;;;;;17.08;78.52;101724.50;5054245;28;20029;-66
2021/07/11 01:05:30;;;;;;;44.65;26.40;;;;;;;17.03;79.26;101722.13;5065240;28;20186;-61
2021/07/11 01:08:04;;;;;;;43.03;25.65;;;;;;;16.94;79.24;101713.75;5074485;28;20124;-67
2021/07/11 01:11:02;;;;;;;45.83;25.95;;;;;;;16.84;79.87;101713.38;5074393;28;20029;-62
2021/07/11 01:13:28;;;;;;;44.20;25.73;;;;;;;16.76;80.81;101712.97;5066598;28;20036;-66
2021/07/11 01:15:58;;;;;;;45.00;24.98;;;;;;;16.74;81.06;101714.84;5062635;28;20021;-66
2021/07/11 01:18:24;;;;;;;48.17;26.10;;;;;;;16.73;81.63;101719.34;5053914;28;20093;-66
2021/07/11 01:20:59;;;;;;;43.60;25.83;;;;;;;16.81;81.94;101718.91;5053777;28;20025;-66
2021/07/11 01:23:50;;;;;;;41.83;25.80;;;;;;;16.88;81.41;101728.31;5054106;28;20067;-66
2021/07/11 01:26:17;;;;;;;39.95;23.15;;;;;;;16.92;80.46;101737.94;5061219;28;20028;-67
2021/07/11 01:28:43;;;;;;;41.25;24.45;;;;;;;16.92;79.91;101735.25;5072255;28;20037;-67
2021/07/11 01:31:09;;;;;;;36.97;22.80;;;;;;;16.93;80.88;101734.31;5072065;28;20059;-66
2021/07/11 01:33:37;;;;;;;40.28;23.67;;;;;;;16.94;80.86;101725.31;5073410;28;20063;-66
2021/07/11 01:36:04;;;;;;;43.28;24.17;;;;;;;16.87;80.80;101727.44;5072020;28;20020;-67
2021/07/11 01:38:30;;;;;;;44.78;25.27;;;;;;;16.87;81.64;101730.13;5053722;28;20107;-65
2021/07/11 01:40:56;;;;;;;44.65;26.33;;;;;;;16.83;81.91;101723.22;5063237;28;20017;-66
2021/07/11 01:43:22;;;;;;;45.67;25.10;;;;;;;16.82;81.70;101729.53;5053526;28;20073;-65
2021/07/11 01:45:50;;;;;;;37.88;22.58;;;;;;;16.83;81.08;101725.91;5063515;28;20063;-67
2021/07/11 01:48:16;;;;;;;38.13;22.80;;;;;;;16.83;80.98;101728.56;5059119;28;20083;-67
2021/07/11 01:50:42;;;;;;;38.80;24.13;;;;;;;16.81;82.05;101730.47;5053271;28;20064;-67
2021/07/11 01:53:07;;;;;;;35.78;21.75;;;;;;;16.88;81.93;101731.84;5054217;28;20059;-65
2021/07/11 01:55:33;;;;;;;37.08;23.63;;;;;;;16.95;82.32;101727.03;5068872;28;20025;-67
2021/07/11 01:57:59;;;;;;;40.35;25.30;;;;;;;16.96;82.21;101733.25;5072058;28;20013;-64
2021/07/11 02:00:24;;;;;;;39.17;24.25;;;;;;;16.98;81.83;101728.66;5071661;28;20033;-67
2021/07/11 02:02:50;;;;;;;37.13;22.60;;;;;;;16.98;81.20;101742.03;5071391;28;20032;-67
2021/07/11 02:05:17;;;;;;;37.08;21.95;;;;;;;16.97;81.43;101740.31;5072719;28;20055;-67
2021/07/11 02:07:42;;;;;;;36.72;21.55;;;;;;;16.96;81.69;101741.28;5072934;28;20028;-67
2021/07/11 02:10:10;;;;;;;40.63;24.13;;;;;;;16.94;82.09;101738.69;5071144;28;20039;-67
2021/07/11 02:12:41;;;;;;;40.92;24.95;;;;;;;16.94;82.44;101743.19;5064339;28;20468;-67
2021/07/11 02:15:07;;;;;;;34.60;22.92;;;;;;;16.89;81.78;101743.41;5053028;28;20104;-67
2021/07/11 02:17:37;;;;;;;36.85;22.10;;;;;;;16.82;81.73;101750.06;5052714;28;20025;-66
2021/07/11 02:20:06;;;;;;;35.90;21.45;;;;;;;16.77;81.60;101754.81;5053883;28;20021;-67
2021/07/11 02:22:33;;;;;;;38.10;22.10;;;;;;;16.76;82.38;101748.59;5053692;28;20158;-65
2021/07/11 02:24:59;;;;;;;35.80;20.95;;;;;;;16.81;82.04;101753.69;5052855;28;20480;-66
2021/07/11 02:27:25;;;;;;;36.03;21.48;;;;;;;16.82;82.51;101748.25;5052730;28;20461;-66
2021/07/11 02:29:55;;;;;;;33.55;21.83;;;;;;;16.82;82.11;101748.25;5054030;28;20036;-67
2021/07/11 02:32:24;;;;;;;32.75;20.13;;;;;;;16.84;81.32;101754.38;5052738;28;20388;-65
2021/07/11 02:34:50;;;;;;;36.13;22.55;;;;;;;16.84;81.34;101749.03;5053666;28;20028;-64
2021/07/11 02:37:19;;;;;;;37.28;22.02;;;;;;;16.84;81.47;101748.16;5052586;28;20036;-65
2021/07/11 02:39:49;;;;;;;33.97;21.80;;;;;;;16.84;82.00;101750.81;5052457;28;20444;-63
2021/07/11 02:42:17;;;;;;;38.42;21.75;;;;;;;16.84;82.30;101753.50;5072709;28;20032;-65
2021/07/11 02:44:47;;;;;;;37.50;22.33;;;;;;;16.82;82.34;101745.56;5067344;28;20050;-65
2021/07/11 02:47:16;;;;;;;42.90;23.77;;;;;;;16.80;82.48;101750.16;5065162;28;20068;-62
2021/07/11 02:49:46;;;;;;;35.70;21.55;;;;;;;16.79;82.23;101743.09;5052286;28;20033;-64
2021/07/11 02:52:14;;;;;;;40.08;22.88;;;;;;;16.78;81.38;101741.34;5053163;28;20033;-65
2021/07/11 02:54:44;;;;;;;40.88;24.20;;;;;;;16.73;82.54;101740.75;5053738;28;20639;-65
2021/07/11 02:57:12;;;;;;;39.30;24.73;;;;;;;16.70;82.17;101735.56;5052436;28;20025;-66
2021/07/11 02:59:39;;;;;;;39.65;22.27;;;;;;;16.67;81.37;101735.75;5052645;28;20029;-64
2021/07/11 03:02:06;;;;;;;42.45;23.63;;;;;;;16.64;81.01;101741.28;5053379;28;20056;-64
2021/07/11 03:04:36;;;;;;;38.67;23.35;;;;;;;16.63;81.35;101742.22;5053144;28;20341;-63
2021/07/11 03:07:02;;;;;;;41.25;23.83;;;;;;;16.60;82.10;101742.38;5052392;28;20121;-63
2021/07/11 03:09:28;;;;;;;40.03;24.23;;;;;;;16.54;81.77;101740.91;5052379;28;20117;-64
2021/07/11 03:11:54;;;;;;;41.78;24.90;;;;;;;16.54;82.78;101740.91;5053275;28;20036;-63
2021/07/11 03:14:22;;;;;;;38.70;24.23;;;;;;;16.55;82.20;101738.16;5052597;28;20055;-63
2021/07/11 03:16:54;;;;;;;41.00;24.58;;;;;;;16.54;82.36;101736.41;5071445;28;20036;-64
2021/07/11 03:19:21;;;;;;;36.88;22.58;;;;;;;16.54;81.37;101738.25;5072015;28;20028;-64
2021/07/11 03:21:48;;;;;;;34.97;21.63;;;;;;;16.53;80.99;101734.72;5071922;28;20476;-64
2021/07/11 03:24:18;;;;;;;34.47;22.00;;;;;;;16.48;81.17;101736.78;5070420;28;20171;-63
2021/07/11 03:26:43;;;;;;;37.40;23.17;;;;;;;16.49;82.17;101735.81;5070444;28;20047;-62
2021/07/11 03:29:25;;;;;;;36.03;22.50;;;;;;;16.54;81.79;101727.53;5073585;28;20468;-64
2021/07/11 03:31:54;;;;;;;32.65;20.83;;;;;;;16.53;81.25;101726.69;5074866;28;20407;-64
2021/07/11 03:34:21;;;;;;;34.83;21.20;;;;;;;16.49;81.30;101724.28;5074028;28;20033;-63
2021/07/11 03:36:49;;;;;;;35.60;20.52;;;;;;;16.45;80.99;101726.25;5064150;28;20022;-65
2021/07/11 03:39:16;;;;;;;34.00;21.00;;;;;;;16.43;81.21;101727.28;5063437;28;20025;-62
2021/07/11 03:41:43;;;;;;;33.90;20.58;;;;;;;16.42;80.98;101729.09;5075903;28;20052;-64
2021/07/11 03:44:11;;;;;;;35.78;20.15;;;;;;;16.42;80.89;101738.91;5072678;28;20032;-65
2021/07/11 03:46:38;;;;;;;35.10;22.00;;;;;;;16.40;81.69;101731.00;5067638;28;20028;-64
2021/07/11 03:49:07;;;;;;;37.63;22.13;;;;;;;16.38;82.05;101732.88;5055976;28;20056;-66
2021/07/11 03:51:35;;;;;;;33.72;21.33;;;;;;;16.37;82.29;101733.84;5055566;28;20059;-64
2021/07/11 03:54:02;;;;;;;35.30;20.67;;;;;;;16.34;81.40;101729.53;5055700;28;20029;-64
2021/07/11 03:56:31;;;;;;;35.78;21.25;;;;;;;16.33;81.79;101721.56;5057723;28;20483;-63
2021/07/11 03:58:58;;;;;;;34.00;21.15;;;;;;;16.34;81.93;101732.19;5055475;28;20035;-65
2021/07/11 04:01:28;;;;;;;36.70;20.70;;;;;;;16.37;81.75;101720.47;5055466;28;20025;-64
2021/07/11 04:03:55;;;;;;;34.35;21.30;;;;;;;16.38;82.43;101719.50;5055567;28;20033;-64
2021/07/11 04:06:22;;;;;;;37.38;22.27;;;;;;;16.42;82.68;101713.06;5056074;28;20037;-65
2021/07/11 04:08:49;;;;;;;31.17;20.27;;;;;;;16.44;81.63;101707.63;5073233;28;20059;-65
2021/07/11 04:11:15;;;;;;;29.60;18.70;;;;;;;16.50;81.26;101708.13;5075258;28;20082;-66
2021/07/11 04:13:41;;;;;;;32.20;18.92;;;;;;;16.57;81.48;101708.66;5074963;28;20032;-66
2021/07/11 04:16:09;;;;;;;29.08;17.05;;;;;;;16.61;80.68;101707.56;5073459;28;20045;-65
2021/07/11 04:18:48;;;;;;;29.33;17.85;;;;;;;16.58;80.80;101704.19;5073452;28;20035;-65
2021/07/11 04:21:15;;;;;;;27.20;16.73;;;;;;;16.54;80.59;101703.47;5075350;28;20095;-66
2021/07/11 04:23:41;;;;;;;27.50;17.80;;;;;;;16.51;81.24;101701.84;5074881;28;20039;-66
2021/07/11 04:26:07;;;;;;;26.65;17.15;;;;;;;16.50;81.32;101696.59;5075006;28;20108;-66
2021/07/11 04:28:38;;;;;;;23.25;15.50;;;;;;;16.49;80.90;101694.84;5071310;28;20111;-66
2021/07/11 04:31:05;;;;;;;24.70;15.80;;;;;;;16.42;80.55;101697.03;5074815;28;20464;-66
2021/07/11 04:33:32;;;;;;;25.60;16.33;;;;;;;16.37;81.25;101699.94;5074785;28;20434;-66
2021/07/11 04:35:58;;;;;;;23.92;15.48;;;;;;;16.35;80.72;101695.63;5075172;28;20063;-66
2021/07/11 04:38:23;;;;;;;23.02;15.45;;;;;;;16.28;81.05;101692.44;5071292;28;20029;-66
2021/07/11 04:40:49;;;;;;;25.50;15.35;;;;;;;16.27;80.69;101689.88;5074852;28;20033;-62
2021/07/11 04:43:16;;;;;;;26.83;16.25;;;;;;;16.19;80.96;101684.94;5074580;28;20066;-63
2021/07/11 04:45:42;;;;;;;27.60;17.05;;;;;;;16.16;80.79;101682.41;5074464;28;20036;-65
2021/07/11 04:48:07;;;;;;;24.55;16.15;;;;;;;16.12;81.59;101679.06;5073035;28;20025;-66
2021/07/11 04:50:32;;;;;;;26.58;15.48;;;;;;;16.15;81.16;101678.91;5072947;28;20089;-66
2021/07/11 04:52:58;;;;;;;26.58;16.70;;;;;;;16.15;80.73;101681.56;5074619;28;20100;-64
2021/07/11 04:55:23;;;;;;;28.40;17.08;;;;;;;16.12;81.04;101691.56;5074221;28;20479;-66
2021/07/11 04:57:49;;;;;;;28.60;17.77;;;;;;;16.10;81.38;101696.09;5074368;28;20031;-66
2021/07/11 05:00:15;;;;;;;31.63;17.67;;;;;;;16.10;81.07;101690.78;5071082;28;20082;-65
2021/07/11 05:02:40;;;;;;;28.20;17.90;;;;;;;16.07;81.59;101690.94;5074610;28;20025;-66
2021/07/11 05:05:07;;;;;;;28.25;17.73;;;;;;;16.08;81.79;101692.69;5074305;28;20141;-65
2021/07/11 05:07:33;;;;;;;30.35;17.88;;;;;;;16.11;81.69;101695.16;5074284;28;20440;-62
2021/07/11 05:09:59;;;;;;;30.38;19.17;;;;;;;16.17;82.23;101702.84;5070519;28;20028;-66
2021/07/11 05:12:24;;;;;;;30.48;18.40;;;;;;;16.22;82.19;101696.31;5073684;28;20490;-65
2021/07/11 05:14:50;;;;;;;27.05;16.98;;;;;;;16.31;81.52;101705.63;5072244;28;20036;-62
2021/07/11 05:17:16;;;;;;;29.35;18.25;;;;;;;16.41;81.35;101716.69;5056324;28;20021;-66
2021/07/11 05:19:42;;;;;;;29.38;18.33;;;;;;;16.51;82.02;101715.22;5066707;28;20082;-65
2021/07/11 05:22:08;;;;;;;35.75;20.75;;;;;;;16.61;81.41;101723.59;5072738;28;20032;-65
2021/07/11 05:24:33;;;;;;;28.25;17.73;;;;;;;16.64;81.08;101715.38;5073574;28;20123;-64
2021/07/11 05:26:58;;;;;;;30.15;19.48;;;;;;;16.66;81.60;101709.94;5073470;28;20040;-65
2021/07/11 05:29:24;;;;;;;34.70;20.08;;;;;;;16.66;81.76;101713.50;5069950;28;20021;-65
2021/07/11 05:31:49;;;;;;;32.53;20.63;;;;;;;16.67;81.45;101712.53;5061456;28;20104;-64
2021/07/11 05:34:14;;;;;;;32.00;20.05;;;;;;;16.75;81.48;101716.59;5062387;28;20239;-66
2021/07/11 05:36:40;;;;;;;39.40;22.55;;;;;;;16.89;82.34;101716.66;5053664;28;20111;-66
2021/07/11 05:39:05;;;;;;;32.67;20.63;;;;;;;17.10;81.80;101721.75;5053670;28;20104;-65
2021/07/11 05:41:31;;;;;;;32.33;20.25;;;;;;;17.27;80.46;101724.28;5059017;28;20024;-65
2021/07/11 05:43:59;;;;;;;31.73;20.48;;;;;;;17.35;79.38;101734.53;5062815;28;20078;-66
2021/07/11 05:46:25;;;;;;;35.03;20.80;;;;;;;17.35;78.91;101735.44;5075959;28;20043;-66
2021/07/11 05:48:50;;;;;;;33.13;21.55;;;;;;;17.26;78.85;101735.94;5037659;28;20044;-66
2021/07/11 05:51:16;;;;;;;30.58;20.15;;;;;;;17.29;80.18;101740.25;5088436;28;20419;-67
2021/07/11 05:53:41;;;;;;;35.22;21.50;;;;;;;17.31;79.43;101736.53;5054172;28;20389;-65
2021/07/11 05:56:06;;;;;;;34.83;20.30;;;;;;;17.30;79.33;101742.88;5053137;28;20049;-65
2021/07/11 05:58:32;;;;;;;30.27;18.70;;;;;;;17.31;78.39;101744.56;5053653;28;20100;-64
2021/07/11 06:00:57;;;;;;;31.30;19.35;;;;;;;17.25;79.46;101754.78;5066149;28;20032;-63
2021/07/11 06:03:22;;;;;;;29.10;19.10;;;;;;;17.23;79.51;101754.88;5069353;28;20021;-63
2021/07/11 06:05:48;;;;;;;29.98;18.67;;;;;;;17.23;79.89;101765.59;5073196;28;20480;-64
2021/07/11 06:08:13;;;;;;;34.00;20.23;;;;;;;17.16;80.18;101766.88;5072958;28;20031;-63
2021/07/11 06:10:39;;;;;;;31.73;20.27;;;;;;;17.14;79.67;101763.44;5073179;28;20024;-64
2021/07/11 06:13:05;;;;;;;33.95;21.08;;;;;;;17.13;79.34;101770.59;5071746;28;20024;-65
2021/07/11 06:15:30;;;;;;;34.63;22.38;;;;;;;17.11;79.68;101772.50;5072359;28;20060;-65
2021/07/11 06:17:55;;;;;;;37.42;22.52;;;;;;;17.10;79.19;101772.63;5073138;28;20031;-61
2021/07/11 06:20:22;;;;;;;30.70;18.85;;;;;;;17.07;79.09;101775.44;5073118;28;20468;-62
2021/07/11 06:22:48;;;;;;;32.50;19.73;;;;;;;17.14;79.56;101787.53;5066708;28;20028;-64
2021/07/11 06:25:13;;;;;;;34.05;21.85;;;;;;;17.12;79.75;101794.78;5066959;28;20040;-64
2021/07/11 06:27:41;;;;;;;33.88;19.50;;;;;;;17.11;79.89;101790.38;5070898;28;20028;-61
2021/07/11 06:30:12;;;;;;;32.65;20.70;;;;;;;17.09;79.27;101786.94;5062048;28;20021;-63
2021/07/11 06:32:39;;;;;;;32.63;19.98;;;;;;;17.03;79.77;101790.81;5053722;28;20511;-61
2021/07/11 06:35:08;;;;;;;30.98;20.08;;;;;;;17.00;79.91;101786.50;5059441;28;20476;-58
2021/07/11 06:37:33;;;;;;;37.13;21.58;;;;;;;16.95;80.05;101783.22;5066730;28;20029;-65
2021/07/11 06:39:59;;;;;;;31.75;20.27;;;;;;;16.90;79.89;101782.59;5060132;28;20047;-67
2021/07/11 06:42:24;;;;;;;31.52;19.80;;;;;;;16.86;79.79;101784.56;5054400;28;20370;-63
2021/07/11 06:44:49;;;;;;;30.05;20.75;;;;;;;16.88;79.90;101790.72;5068949;28;20024;-63
2021/07/11 06:47:15;;;;;;;33.58;21.13;;;;;;;16.87;79.68;101786.28;5072098;28;20077;-65
2021/07/11 06:49:40;;;;;;;35.22;22.70;;;;;;;16.88;80.02;101782.69;5055513;28;20035;-63
2021/07/11 06:52:06;;;;;;;30.58;20.40;;;;;;;16.94;79.87;101788.66;5058324;28;20439;-66
2021/07/11 06:54:31;;;;;;;32.47;20.00;;;;;;;16.94;79.87;101794.00;5070336;28;20021;-63
2021/07/11 06:56:57;;;;;;;33.63;22.15;;;;;;;16.95;79.80;101793.91;5072118;28;20479;-67
2021/07/11 06:59:22;;;;;;;29.67;19.52;;;;;;;16.98;79.90;101793.75;5063785;28;20116;-65
2021/07/11 07:01:47;;;;;;;29.42;19.00;;;;;;;17.00;79.77;101804.38;5055226;28;20487;-67
2021/07/11 07:04:13;;;;;;;33.58;20.90;;;;;;;17.02;80.36;101805.13;5067821;28;20029;-66
2021/07/11 07:06:38;;;;;;;33.08;20.48;;;;;;;17.01;80.04;101811.47;5056705;28;20108;-63
2021/07/11 07:09:04;;;;;;;34.50;23.55;;;;;;;17.05;80.21;101807.66;5073215;28;20396;-66
2021/07/11 07:11:29;;;;;;;35.08;22.15;;;;;;;17.10;80.39;101812.75;5067389;28;20078;-67
2021/07/11 07:13:55;;;;;;;37.17;25.00;;;;;;;17.15;79.94;101816.03;5060693;28;20115;-67
2021/07/11 07:16:20;;;;;;;36.60;24.42;;;;;;;17.18;80.08;101819.38;5060408;28;20032;-65
2021/07/11 07:18:45;;;;;;;39.17;24.02;;;;;;;17.18;80.13;101813.16;5057872;28;20036;-64
2021/07/11 07:21:11;;;;;;;39.35;25.08;;;;;;;17.17;80.08;101823.03;5056007;28;20035;-65
2021/07/11 07:23:36;;;;;;;43.13;27.20;;;;;;;17.10;81.38;101820.78;5069403;28;20421;-61
2021/07/11 07:26:02;;;;;;;44.35;26.60;;;;;;;17.12;80.81;101819.75;5074973;28;20078;-64
2021/07/11 07:28:27;;;;;;;53.15;31.02;;;;;;;17.11;81.24;101825.16;5075322;28;20078;-66
2021/07/11 07:30:52;;;;;;;51.97;29.88;;;;;;;17.12;81.47;101814.38;5056589;28;20484;-65
2021/07/11 07:33:18;;;;;;;50.15;29.65;;;;;;;17.10;80.69;101816.28;5056326;28;20025;-62
2021/07/11 07:35:43;;;;;;;52.80;31.80;;;;;;;17.12;80.84;101813.50;5061310;28;20456;-67
2021/07/11 07:38:08;;;;;;;45.97;28.90;;;;;;;17.15;81.36;101810.69;5064505;28;20036;-64
2021/07/11 07:40:34;;;;;;;57.22;32.47;;;;;;;17.18;81.62;101818.53;5066514;28;20028;-67
2021/07/11 07:42:59;;;;;;;52.28;31.13;;;;;;;17.24;80.97;101818.16;5075721;28;20021;-66
2021/07/11 07:45:25;;;;;;;50.05;31.63;;;;;;;17.20;80.79;101819.31;5073967;28;20059;-67
2021/07/11 07:47:50;;;;;;;49.45;30.15;;;;;;;17.18;80.89;101813.16;5063578;28;20024;-66
2021/07/11 07:50:16;;;;;;;61.92;34.63;;;;;;;17.14;81.62;101831.22;5073058;28;20104;-65
2021/07/11 07:52:41;;;;;;;52.17;33.08;;;;;;;17.16;81.48;101832.00;5069971;28;20024;-62
2021/07/11 07:55:08;;;;;;;58.15;34.15;;;;;;;17.06;81.94;101830.78;5067179;28;20028;-63
2021/07/11 07:57:33;;;;;;;55.85;33.78;;;;;;;17.04;82.21;101838.88;5065936;28;20024;-65
2021/07/11 07:59:59;;;;;;;52.17;31.80;;;;;;;17.04;81.29;101827.31;5063089;28;20035;-64
2021/07/11 08:02:24;;;;;;;54.72;32.15;;;;;;;17.06;81.63;101836.16;5058366;28;20058;-64
2021/07/11 08:04:50;;;;;;;50.28;31.35;;;;;;;17.01;81.55;101835.53;5069572;28;20524;-66
2021/07/11 08:07:16;;;;;;;58.13;34.92;;;;;;;17.07;82.29;101839.66;5071945;28;20634;-63
2021/07/11 08:09:41;;;;;;;52.88;32.92;;;;;;;17.10;82.41;101824.31;5068437;28;20032;-63
2021/07/11 08:12:07;;;;;;;47.65;29.55;;;;;;;17.14;81.33;101819.66;5065912;28;20029;-66
2021/07/11 08:14:33;;;;;;;49.13;31.50;;;;;;;17.19;81.60;101823.78;5059432;28;20508;-65
2021/07/11 08:16:58;;;;;;;44.83;28.85;;;;;;;17.33;80.67;101819.47;5069484;28;20032;-64
2021/07/11 08:19:25;;;;;;;49.47;30.90;;;;;;;17.39;80.93;101828.94;5057078;28;20074;-61
2021/07/11 08:21:53;;;;;;;51.60;31.52;;;;;;;17.46;81.28;101828.50;5058987;28;20025;-64
2021/07/11 08:24:22;;;;;;;51.28;31.65;;;;;;;17.50;81.38;101832.72;5069756;28;20025;-65
2021/07/11 08:26:48;;;;;;;49.22;30.70;;;;;;;17.58;79.57;101834.94;5056130;28;20029;-61
2021/07/11 08:29:14;;;;;;;46.28;29.42;;;;;;;17.55;79.70;101837.81;5066399;28;20025;-67
2021/07/11 08:31:39;;;;;;;46.20;28.13;;;;;;;17.59;79.87;101836.66;5073861;28;20031;-64
2021/07/11 08:34:05;;;;;;;47.60;28.67;;;;;;;17.58;79.85;101834.94;5074464;28;20025;-66
2021/07/11 08:36:31;;;;;;;50.95;31.23;;;;;;;17.51;80.00;101829.09;5072306;28;20029;-61
2021/07/11 08:38:57;;;;;;;49.60;31.05;;;;;;;17.53;80.23;101837.03;5070552;28;20024;-65
2021/07/11 08:41:23;;;;;;;41.35;26.00;;;;;;;17.62;79.90;101836.50;5070740;28;20043;-65
2021/07/11 08:43:51;;;;;;;50.60;30.25;;;;;;;17.69;78.88;101839.69;5056768;28;20021;-65
2021/07/11 08:46:16;;;;;;;54.33;32.53;;;;;;;17.70;80.76;101833.38;5072932;28;20115;-66
2021/07/11 08:48:43;;;;;;;56.17;32.97;;;;;;;17.79;80.39;101842.69;5072641;28;20523;-61
2021/07/11 08:51:08;;;;;;;50.25;30.30;;;;;;;17.96;79.56;101839.00;5074204;28;20032;-62
2021/07/11 08:53:34;;;;;;;50.33;31.27;;;;;;;18.13;78.87;101837.97;5072572;28;20032;-65
2021/07/11 08:56:02;;;;;;;47.10;28.67;;;;;;;18.42;78.77;101836.19;5074325;28;20370;-59
2021/07/11 08:58:28;;;;;;;44.13;28.75;;;;;;;18.60;77.27;101830.63;5073900;28;20317;-61
2021/07/11 09:00:54;;;;;;;45.20;29.27;;;;;;;18.76;77.04;101822.47;5068926;28;20024;-60
2021/07/11 09:03:20;;;;;;;49.50;29.60;;;;;;;18.82;76.58;101825.63;5062382;28;20119;-61
2021/07/11 09:05:45;;;;;;;48.92;29.98;;;;;;;18.91;76.45;101818.81;5071842;28;20045;-61
2021/07/11 09:08:19;;;;;;;49.40;30.80;;;;;;;19.02;76.25;101815.47;5072047;28;20032;-59
2021/07/11 09:10:53;;;;;;;47.58;30.42;;;;;;;19.09;76.96;101818.59;5074133;28;20025;-62
2021/07/11 09:13:24;;;;;;;49.42;30.40;;;;;;;19.49;75.84;101815.97;5054770;28;20476;-59
2021/07/11 09:15:51;;;;;;;45.87;29.87;;;;;;;20.13;74.34;101818.78;5071779;28;20082;-61
2021/07/11 09:18:32;;;;;;;41.00;27.50;;;;;;;20.34;71.37;101820.91;5047047;28;20058;-60
2021/07/11 09:21:06;;;;;;;40.47;27.05;;;;;;;20.41;71.47;101819.53;5064494;28;20033;-61
2021/07/11 09:23:32;;;;;;;38.10;25.42;;;;;;;21.34;68.66;101826.28;5054294;28;20028;-61
2021/07/11 09:26:05;;;;;;;33.35;22.15;;;;;;;22.39;64.08;101833.59;5055922;28;20060;-61
2021/07/11 09:28:33;;;;;;;31.92;22.70;;;;;;;23.01;62.97;101826.78;5067286;28;20029;-63
2021/07/11 09:31:12;;;;;;;30.05;20.45;;;;;;;24.10;60.02;101825.88;5062747;28;20135;-60
2021/07/11 09:33:44;;;;;;;29.38;19.83;;;;;;;24.91;56.75;101822.38;5069419;28;20040;-60
2021/07/11 09:36:21;;;;;;;28.67;18.85;;;;;;;25.36;54.18;101827.34;5062454;28;20081;-60
2021/07/11 09:38:48;;;;;;;27.15;18.92;;;;;;;24.20;58.21;101827.63;5054853;28;20036;-61
2021/07/11 09:41:27;;;;;;;27.70;18.33;;;;;;;23.26;57.93;101827.47;5068364;28;20033;-63
2021/07/11 09:43:56;;;;;;;24.17;17.52;;;;;;;22.73;60.96;101829.03;5059631;28;20468;-61
2021/07/11 09:46:26;;;;;;;22.67;15.70;;;;;;;22.97;59.74;101836.13;5066502;28;20036;-61
2021/07/11 09:48:52;;;;;;;24.27;17.25;;;;;;;22.98;60.39;101828.88;5069818;28;20036;-62
2021/07/11 09:51:26;;;;;;;21.45;14.70;;;;;;;23.08;57.26;101830.72;5073642;28;20029;-65
2021/07/11 09:53:53;;;;;;;25.80;17.15;;;;;;;22.97;59.93;101837.97;5072854;28;20334;-61
2021/07/11 09:56:43;;;;;;;21.13;15.90;;;;;;;23.24;57.45;101834.88;5071700;28;20495;-62
2021/07/11 09:59:11;;;;;;;22.73;17.15;;;;;;;23.46;57.75;101841.19;5064235;28;20025;-60
2021/07/11 10:01:39;;;;;;;21.77;14.93;;;;;;;24.25;55.96;101827.25;5046889;28;20021;-62
2021/07/11 10:04:05;;;;;;;20.30;14.18;;;;;;;25.31;52.40;101822.28;5063506;28;20968;-63
2021/07/11 10:06:33;;;;;;;20.10;15.20;;;;;;;26.13;49.91;101821.97;5065207;28;20488;-61
2021/07/11 10:08:59;;;;;;;21.52;14.43;;;;;;;25.55;52.08;101817.47;5065716;28;20113;-65
2021/07/11 10:11:24;;;;;;;17.75;13.93;;;;;;;25.42;52.13;101824.03;5070237;28;20107;-65
2021/07/11 10:13:50;;;;;;;19.42;13.70;;;;;;;26.25;50.65;101822.66;5070746;28;20035;-61
2021/07/11 10:16:18;;;;;;;19.25;14.55;;;;;;;27.09;46.68;101809.94;5059653;28;20065;-61
2021/07/11 10:18:45;;;;;;;16.27;12.10;;;;;;;27.98;44.48;101810.03;5070404;28;20446;-60
2021/07/11 10:21:12;;;;;;;17.23;12.75;;;;;;;27.66;45.07;101808.78;5071993;28;20034;-60
2021/07/11 10:23:40;;;;;;;18.67;13.90;;;;;;;27.33;48.48;101798.44;5066227;28;20027;-60
2021/07/11 10:26:14;;;;;;;17.30;14.00;;;;;;;27.28;47.83;101803.50;5072897;28;20032;-62
2021/07/11 10:28:45;;;;;;;16.52;12.65;;;;;;;28.06;44.81;101802.78;5069812;28;20036;-61
2021/07/11 10:31:25;;;;;;;19.35;13.68;;;;;;;27.16;45.20;101800.16;5067181;28;20040;-60
2021/07/11 10:33:53;;;;;;;18.15;14.15;;;;;;;26.12;48.94;101815.69;5068517;28;20043;-62
2021/07/11 10:36:29;;;;;;;24.02;15.88;;;;;;;25.40;51.06;101808.91;5062047;28;20048;-63
2021/07/11 10:38:56;;;;;;;18.15;14.45;;;;;;;25.62;51.97;101813.19;5067307;28;20034;-60
2021/07/11 10:41:26;;;;;;;19.73;15.10;;;;;;;25.72;48.61;101805.91;5070488;28;20037;-61
2021/07/11 10:44:01;;;;;;;18.63;14.63;;;;;;;24.91;50.38;101804.28;5054007;28;20029;-60
2021/07/11 10:46:38;;;;;;;20.73;15.27;;;;;;;24.21;52.94;101810.41;5052141;28;20112;-63
2021/07/11 10:49:13;;;;;;;18.15;13.82;;;;;;;24.12;52.74;101810.34;5054753;28;20033;-63
2021/07/11 10:51:41;;;;;;;18.33;13.65;;;;;;;23.81;53.71;101804.88;5061629;28;20475;-63
2021/07/11 10:54:17;;;;;;;19.52;14.18;;;;;;;23.95;53.64;101809.13;5072237;28;20372;-62
2021/07/11 10:56:43;;;;;;;18.67;13.88;;;;;;;23.98;52.83;101809.72;5071658;28;20502;-62
2021/07/11 10:59:08;;;;;;;19.25;15.13;;;;;;;23.65;53.74;101808.06;5066854;28;20103;-61
2021/07/11 11:01:37;;;;;;;19.98;14.95;;;;;;;23.20;55.03;101815.34;5058259;28;20056;-63
2021/07/11 11:04:03;;;;;;;23.63;16.90;;;;;;;23.02;58.88;101817.72;5073044;28;20028;-64
2021/07/11 11:06:38;;;;;;;22.27;16.60;;;;;;;22.70;57.60;101815.81;5072498;28;20082;-64
2021/07/11 11:09:03;;;;;;;22.60;17.20;;;;;;;22.84;56.07;101806.59;5069867;28;20067;-62
2021/07/11 11:11:30;;;;;;;20.75;15.32;;;;;;;22.86;56.14;101815.41;5069627;28;20056;-64